sensor_id;sensor_type;location;lat;lon;timestamp;pressure;altitude;pressure_sealevel;temperature;humidity
27144;BME280;14672;50.250;8.312;2023-03-14T00:02:34;96825.88;;;13.52;67.19
27144;BME280;14672;50.250;8.312;2023-03-14T00:05:00;96848.47;;;13.45;67.42
27144;BME280;14672;50.250;8.312;2023-03-14T00:07:33;96846.78;;;13.20;68.29
27144;BME280;14672;50.250;8.312;2023-03-14T00:10:06;96852.72;;;13.27;68.37
27144;BME280;14672;50.250;8.312;2023-03-14T00:12:32;96864.81;;;13.44;67.84
27144;BME280;14672;50.250;8.312;2023-03-14T00:14:58;96869.75;;;13.38;68.30
27144;BME280;14672;50.250;8.312;2023-03-14T00:17:26;96859.47;;;13.24;68.49
27144;BME280;14672;50.250;8.312;2023-03-14T00:19:53;96859.41;;;13.35;67.81
27144;BME280;14672;50.250;8.312;2023-03-14T00:22:20;96862.03;;;13.28;68.19
27144;BME280;14672;50.250;8.312;2023-03-14T00:24:47;96872.31;;;13.47;67.42
27144;BME280;14672;50.250;8.312;2023-03-14T00:27:12;96874.16;;;13.45;67.31
27144;BME280;14672;50.250;8.312;2023-03-14T00:29:38;96870.03;;;13.35;67.42
27144;BME280;14672;50.250;8.312;2023-03-14T00:32:04;96875.47;;;13.38;67.10
27144;BME280;14672;50.250;8.312;2023-03-14T00:34:31;96866.66;;;13.36;67.38
27144;BME280;14672;50.250;8.312;2023-03-14T00:36:57;96865.81;;;13.47;67.15
27144;BME280;14672;50.250;8.312;2023-03-14T00:39:23;96854.91;;;13.51;67.04
27144;BME280;14672;50.250;8.312;2023-03-14T00:41:49;96846.16;;;13.38;67.39
27144;BME280;14672;50.250;8.312;2023-03-14T00:44:15;96829.13;;;13.27;67.72
27144;BME280;14672;50.250;8.312;2023-03-14T00:46:40;96805.50;;;13.32;67.52
27144;BME280;14672;50.250;8.312;2023-03-14T00:49:06;96815.34;;;13.36;67.76
27144;BME280;14672;50.250;8.312;2023-03-14T00:51:32;96801.38;;;13.27;67.68
27144;BME280;14672;50.250;8.312;2023-03-14T00:54:00;96793.84;;;13.30;67.86
27144;BME280;14672;50.250;8.312;2023-03-14T00:56:26;96784.47;;;13.35;67.79
27144;BME280;14672;50.250;8.312;2023-03-14T00:58:56;96774.38;;;13.34;67.68
27144;BME280;14672;50.250;8.312;2023-03-14T01:01:23;96776.41;;;13.39;67.64
27144;BME280;14672;50.250;8.312;2023-03-14T01:03:53;96790.75;;;13.28;68.04
27144;BME280;14672;50.250;8.312;2023-03-14T01:06:29;96798.22;;;13.36;68.14
27144;BME280;14672;50.250;8.312;2023-03-14T01:08:57;96809.50;;;13.18;68.61
27144;BME280;14672;50.250;8.312;2023-03-14T01:11:26;96812.28;;;13.23;68.81
27144;BME280;14672;50.250;8.312;2023-03-14T01:13:54;96806.88;;;13.20;68.94
27144;BME280;14672;50.250;8.312;2023-03-14T01:16:22;96815.72;;;13.10;69.12
27144;BME280;14672;50.250;8.312;2023-03-14T01:18:48;96801.75;;;13.01;69.44
27144;BME280;14672;50.250;8.312;2023-03-14T01:21:25;96804.03;;;13.14;68.89
27144;BME280;14672;50.250;8.312;2023-03-14T01:23:53;96810.78;;;13.16;68.21
27144;BME280;14672;50.250;8.312;2023-03-14T01:26:22;96798.59;;;13.22;68.14
27144;BME280;14672;50.250;8.312;2023-03-14T01:28:51;96804.81;;;13.14;67.93
27144;BME280;14672;50.250;8.312;2023-03-14T01:31:17;96793.94;;;13.07;68.12
27144;BME280;14672;50.250;8.312;2023-03-14T01:33:45;96805.88;;;13.11;67.71
27144;BME280;14672;50.250;8.312;2023-03-14T01:36:11;96794.97;;;13.15;67.70
27144;BME280;14672;50.250;8.312;2023-03-14T01:38:39;96788.53;;;13.04;67.84
27144;BME280;14672;50.250;8.312;2023-03-14T01:41:07;96775.53;;;13.14;67.57
27144;BME280;14672;50.250;8.312;2023-03-14T01:43:34;96768.09;;;13.00;67.73
27144;BME280;14672;50.250;8.312;2023-03-14T01:51:14;96753.75;;;13.16;67.28
27144;BME280;14672;50.250;8.312;2023-03-14T01:53:42;96747.03;;;13.14;67.33
27144;BME280;14672;50.250;8.312;2023-03-14T01:56:14;96742.13;;;13.09;67.19
27144;BME280;14672;50.250;8.312;2023-03-14T01:58:46;96747.41;;;12.88;67.78
27144;BME280;14672;50.250;8.312;2023-03-14T02:01:17;96748.09;;;13.11;67.51
27144;BME280;14672;50.250;8.312;2023-03-14T02:03:54;96733.88;;;13.00;68.03
27144;BME280;14672;50.250;8.312;2023-03-14T02:06:29;96722.47;;;13.05;67.43
27144;BME280;14672;50.250;8.312;2023-03-14T02:08:57;96729.75;;;12.95;67.42
27144;BME280;14672;50.250;8.312;2023-03-14T02:11:28;96728.88;;;13.17;67.21
27144;BME280;14672;50.250;8.312;2023-03-14T02:13:57;96737.09;;;13.26;66.58
27144;BME280;14672;50.250;8.312;2023-03-14T02:16:23;96729.19;;;13.13;67.11
27144;BME280;14672;50.250;8.312;2023-03-14T02:18:49;96725.69;;;13.26;66.49
27144;BME280;14672;50.250;8.312;2023-03-14T02:21:59;96729.00;;;13.36;66.49
27144;BME280;14672;50.250;8.312;2023-03-14T02:24:24;96726.75;;;13.23;66.47
27144;BME280;14672;50.250;8.312;2023-03-14T02:27:15;96740.16;;;13.34;66.53
27144;BME280;14672;50.250;8.312;2023-03-14T02:29:57;96720.53;;;13.25;66.81
27144;BME280;14672;50.250;8.312;2023-03-14T02:32:26;96728.09;;;13.16;66.98
27144;BME280;14672;50.250;8.312;2023-03-14T02:34:57;96724.50;;;13.10;67.04
27144;BME280;14672;50.250;8.312;2023-03-14T02:37:33;96720.84;;;13.15;66.81
27144;BME280;14672;50.250;8.312;2023-03-14T02:40:01;96717.94;;;12.80;67.75
27144;BME280;14672;50.250;8.312;2023-03-14T02:42:27;96709.22;;;13.08;66.83
27144;BME280;14672;50.250;8.312;2023-03-14T02:47:46;96716.63;;;13.28;65.92
27144;BME280;14672;50.250;8.312;2023-03-14T02:50:19;96720.63;;;13.13;66.57
27144;BME280;14672;50.250;8.312;2023-03-14T02:52:46;96717.28;;;12.98;66.84
27144;BME280;14672;50.250;8.312;2023-03-14T02:55:12;96699.88;;;13.07;66.64
27144;BME280;14672;50.250;8.312;2023-03-14T02:57:38;96697.69;;;12.89;66.52
27144;BME280;14672;50.250;8.312;2023-03-14T03:00:05;96696.06;;;12.99;66.25
27144;BME280;14672;50.250;8.312;2023-03-14T03:02:32;96695.25;;;13.04;66.16
27144;BME280;14672;50.250;8.312;2023-03-14T03:04:57;96705.19;;;12.87;66.76
27144;BME280;14672;50.250;8.312;2023-03-14T03:07:24;96689.06;;;13.00;65.91
27144;BME280;14672;50.250;8.312;2023-03-14T03:09:51;96689.44;;;12.80;66.29
27144;BME280;14672;50.250;8.312;2023-03-14T03:12:16;96697.84;;;13.02;65.88
27144;BME280;14672;50.250;8.312;2023-03-14T03:14:42;96694.84;;;12.89;65.88
27144;BME280;14672;50.250;8.312;2023-03-14T03:17:08;96697.31;;;13.04;65.62
27144;BME280;14672;50.250;8.312;2023-03-14T03:19:35;96697.59;;;13.00;65.53
27144;BME280;14672;50.250;8.312;2023-03-14T03:22:01;96685.59;;;12.78;66.04
27144;BME280;14672;50.250;8.312;2023-03-14T03:24:27;96686.44;;;13.02;65.63
27144;BME280;14672;50.250;8.312;2023-03-14T03:26:53;96683.44;;;12.89;65.88
27144;BME280;14672;50.250;8.312;2023-03-14T03:29:19;96688.94;;;12.76;65.94
27144;BME280;14672;50.250;8.312;2023-03-14T03:31:45;96676.91;;;12.94;65.57
27144;BME280;14672;50.250;8.312;2023-03-14T03:34:12;96678.72;;;12.97;65.09
27144;BME280;14672;50.250;8.312;2023-03-14T03:36:39;96674.06;;;12.94;65.04
27144;BME280;14672;50.250;8.312;2023-03-14T03:39:05;96671.66;;;13.09;64.80
27144;BME280;14672;50.250;8.312;2023-03-14T03:41:31;96674.25;;;13.13;64.96
27144;BME280;14672;50.250;8.312;2023-03-14T03:43:57;96681.09;;;12.93;65.28
27144;BME280;14672;50.250;8.312;2023-03-14T03:46:23;96668.31;;;13.05;65.17
27144;BME280;14672;50.250;8.312;2023-03-14T03:48:59;96670.09;;;13.08;65.04
27144;BME280;14672;50.250;8.312;2023-03-14T03:51:25;96671.09;;;13.16;64.73
27144;BME280;14672;50.250;8.312;2023-03-14T03:53:51;96665.69;;;13.07;64.88
27144;BME280;14672;50.250;8.312;2023-03-14T03:56:17;96662.06;;;13.07;64.76
27144;BME280;14672;50.250;8.312;2023-03-14T03:58:43;96659.22;;;13.12;64.47
27144;BME280;14672;50.250;8.312;2023-03-14T04:01:09;96648.34;;;13.05;64.28
27144;BME280;14672;50.250;8.312;2023-03-14T04:03:37;96646.25;;;13.11;64.33
27144;BME280;14672;50.250;8.312;2023-03-14T04:06:10;96642.59;;;13.16;64.44
27144;BME280;14672;50.250;8.312;2023-03-14T04:08:37;96643.47;;;13.00;65.08
27144;BME280;14672;50.250;8.312;2023-03-14T04:11:03;96636.59;;;13.20;64.43
27144;BME280;14672;50.250;8.312;2023-03-14T04:13:29;96644.16;;;13.18;64.90
27144;BME280;14672;50.250;8.312;2023-03-14T04:15:56;96644.19;;;13.06;64.71
27144;BME280;14672;50.250;8.312;2023-03-14T04:18:23;96636.41;;;13.12;65.02
27144;BME280;14672;50.250;8.312;2023-03-14T04:20:57;96637.19;;;13.13;64.96
27144;BME280;14672;50.250;8.312;2023-03-14T04:23:25;96633.78;;;13.14;64.55
27144;BME280;14672;50.250;8.312;2023-03-14T04:25:52;96628.75;;;13.26;64.07
27144;BME280;14672;50.250;8.312;2023-03-14T04:28:18;96635.69;;;13.01;64.90
27144;BME280;14672;50.250;8.312;2023-03-14T04:30:44;96630.44;;;13.10;64.24
27144;BME280;14672;50.250;8.312;2023-03-14T04:33:10;96624.00;;;13.04;64.00
27144;BME280;14672;50.250;8.312;2023-03-14T04:35:38;96633.72;;;13.26;63.54
27144;BME280;14672;50.250;8.312;2023-03-14T04:38:04;96629.00;;;12.93;63.96
27144;BME280;14672;50.250;8.312;2023-03-14T04:40:30;96617.91;;;12.89;64.01
27144;BME280;14672;50.250;8.312;2023-03-14T04:42:55;96624.03;;;12.99;63.66
27144;BME280;14672;50.250;8.312;2023-03-14T04:45:21;96607.47;;;12.97;63.70
27144;BME280;14672;50.250;8.312;2023-03-14T04:47:47;96611.81;;;13.04;63.81
27144;BME280;14672;50.250;8.312;2023-03-14T04:50:13;96611.78;;;13.09;63.81
27144;BME280;14672;50.250;8.312;2023-03-14T04:52:38;96603.56;;;13.00;63.71
27144;BME280;14672;50.250;8.312;2023-03-14T04:55:05;96595.13;;;13.19;63.33
27144;BME280;14672;50.250;8.312;2023-03-14T04:57:30;96581.25;;;13.04;64.09
27144;BME280;14672;50.250;8.312;2023-03-14T04:59:56;96579.94;;;13.05;64.50
27144;BME280;14672;50.250;8.312;2023-03-14T05:02:22;96601.97;;;13.05;64.58
27144;BME280;14672;50.250;8.312;2023-03-14T05:04:48;96601.38;;;13.18;64.15
27144;BME280;14672;50.250;8.312;2023-03-14T05:07:14;96600.91;;;13.08;64.31
27144;BME280;14672;50.250;8.312;2023-03-14T05:09:40;96591.91;;;12.98;64.69
27144;BME280;14672;50.250;8.312;2023-03-14T05:12:06;96598.81;;;13.08;64.60
27144;BME280;14672;50.250;8.312;2023-03-14T05:14:32;96610.06;;;12.95;64.93
27144;BME280;14672;50.250;8.312;2023-03-14T05:16:57;96592.38;;;13.02;64.63
27144;BME280;14672;50.250;8.312;2023-03-14T05:19:23;96600.13;;;13.07;64.60
27144;BME280;14672;50.250;8.312;2023-03-14T05:21:49;96584.19;;;12.93;64.79
27144;BME280;14672;50.250;8.312;2023-03-14T05:24:14;96582.34;;;12.96;64.85
27144;BME280;14672;50.250;8.312;2023-03-14T05:26:40;96577.44;;;12.96;64.86
27144;BME280;14672;50.250;8.312;2023-03-14T05:29:06;96583.13;;;12.96;65.03
27144;BME280;14672;50.250;8.312;2023-03-14T05:31:32;96586.31;;;12.87;65.27
27144;BME280;14672;50.250;8.312;2023-03-14T05:33:57;96582.63;;;12.92;65.38
27144;BME280;14672;50.250;8.312;2023-03-14T05:36:23;96584.19;;;12.93;64.84
27144;BME280;14672;50.250;8.312;2023-03-14T05:38:49;96576.53;;;12.77;65.86
27144;BME280;14672;50.250;8.312;2023-03-14T05:41:14;96570.16;;;12.95;65.59
27144;BME280;14672;50.250;8.312;2023-03-14T05:43:40;96569.28;;;12.76;65.51
27144;BME280;14672;50.250;8.312;2023-03-14T05:46:06;96567.50;;;12.73;65.32
27144;BME280;14672;50.250;8.312;2023-03-14T05:48:32;96568.91;;;12.91;64.80
27144;BME280;14672;50.250;8.312;2023-03-14T05:50:58;96570.75;;;12.88;65.28
27144;BME280;14672;50.250;8.312;2023-03-14T05:53:25;96561.13;;;12.91;65.28
27144;BME280;14672;50.250;8.312;2023-03-14T05:55:54;96561.44;;;12.88;65.16
27144;BME280;14672;50.250;8.312;2023-03-14T05:58:21;96557.41;;;13.02;65.15
27144;BME280;14672;50.250;8.312;2023-03-14T06:00:47;96558.19;;;13.02;65.51
27144;BME280;14672;50.250;8.312;2023-03-14T06:03:13;96567.47;;;13.08;65.08
27144;BME280;14672;50.250;8.312;2023-03-14T06:05:39;96546.50;;;13.06;64.60
27144;BME280;14672;50.250;8.312;2023-03-14T06:08:05;96546.22;;;13.09;65.13
27144;BME280;14672;50.250;8.312;2023-03-14T06:10:31;96545.63;;;12.87;65.67
27144;BME280;14672;50.250;8.312;2023-03-14T06:12:56;96536.47;;;12.99;65.98
27144;BME280;14672;50.250;8.312;2023-03-14T06:15:22;96540.78;;;13.06;66.05
27144;BME280;14672;50.250;8.312;2023-03-14T06:17:48;96552.97;;;13.06;65.91
27144;BME280;14672;50.250;8.312;2023-03-14T06:20:14;96551.81;;;12.91;65.87
27144;BME280;14672;50.250;8.312;2023-03-14T06:22:40;96531.56;;;12.94;66.16
27144;BME280;14672;50.250;8.312;2023-03-14T06:25:06;96534.69;;;12.96;66.17
27144;BME280;14672;50.250;8.312;2023-03-14T06:27:33;96536.56;;;12.88;65.82
27144;BME280;14672;50.250;8.312;2023-03-14T06:29:59;96536.47;;;12.99;65.46
27144;BME280;14672;50.250;8.312;2023-03-14T06:32:25;96531.75;;;13.02;65.75
27144;BME280;14672;50.250;8.312;2023-03-14T06:34:50;96534.84;;;12.74;65.53
27144;BME280;14672;50.250;8.312;2023-03-14T06:37:16;96538.59;;;12.93;64.87
27144;BME280;14672;50.250;8.312;2023-03-14T06:39:42;96519.94;;;12.92;64.88
27144;BME280;14672;50.250;8.312;2023-03-14T06:42:10;96523.63;;;12.87;64.97
27144;BME280;14672;50.250;8.312;2023-03-14T06:44:36;96515.88;;;12.82;65.02
27144;BME280;14672;50.250;8.312;2023-03-14T06:47:01;96533.47;;;12.86;65.29
27144;BME280;14672;50.250;8.312;2023-03-14T06:49:27;96516.91;;;12.85;65.53
27144;BME280;14672;50.250;8.312;2023-03-14T06:51:53;96515.31;;;12.89;65.01
27144;BME280;14672;50.250;8.312;2023-03-14T06:54:19;96516.84;;;12.90;64.99
27144;BME280;14672;50.250;8.312;2023-03-14T06:56:45;96518.22;;;12.84;65.27
27144;BME280;14672;50.250;8.312;2023-03-14T06:59:11;96528.69;;;13.00;65.40
27144;BME280;14672;50.250;8.312;2023-03-14T07:01:36;96532.44;;;12.84;65.87
27144;BME280;14672;50.250;8.312;2023-03-14T07:04:02;96541.28;;;12.80;65.30
27144;BME280;14672;50.250;8.312;2023-03-14T07:06:28;96529.03;;;12.91;65.34
27144;BME280;14672;50.250;8.312;2023-03-14T07:08:57;96536.47;;;12.99;65.06
27144;BME280;14672;50.250;8.312;2023-03-14T07:11:23;96540.06;;;12.70;65.96
27144;BME280;14672;50.250;8.312;2023-03-14T07:13:49;96549.59;;;12.78;65.81
27144;BME280;14672;50.250;8.312;2023-03-14T07:16:15;96560.13;;;12.89;65.53
27144;BME280;14672;50.250;8.312;2023-03-14T07:18:41;96546.88;;;12.91;65.79
27144;BME280;14672;50.250;8.312;2023-03-14T07:21:08;96540.19;;;12.89;65.19
27144;BME280;14672;50.250;8.312;2023-03-14T07:23:38;96544.03;;;12.91;65.45
27144;BME280;14672;50.250;8.312;2023-03-14T07:26:04;96535.19;;;12.95;65.45
27144;BME280;14672;50.250;8.312;2023-03-14T07:28:30;96541.97;;;12.92;65.48
27144;BME280;14672;50.250;8.312;2023-03-14T07:30:56;96534.69;;;12.96;65.96
27144;BME280;14672;50.250;8.312;2023-03-14T07:33:22;96540.56;;;13.04;65.61
27144;BME280;14672;50.250;8.312;2023-03-14T07:35:49;96538.41;;;12.86;66.24
27144;BME280;14672;50.250;8.312;2023-03-14T07:38:15;96541.56;;;13.06;65.66
27144;BME280;14672;50.250;8.312;2023-03-14T07:40:42;96540.53;;;13.09;66.08
27144;BME280;14672;50.250;8.312;2023-03-14T07:43:07;96546.22;;;13.09;65.83
27144;BME280;14672;50.250;8.312;2023-03-14T07:45:33;96546.28;;;13.04;65.71
27144;BME280;14672;50.250;8.312;2023-03-14T07:47:59;96545.66;;;13.16;65.45
27144;BME280;14672;50.250;8.312;2023-03-14T07:50:26;96563.19;;;12.96;65.71
27144;BME280;14672;50.250;8.312;2023-03-14T07:52:51;96547.28;;;13.06;65.59
27144;BME280;14672;50.250;8.312;2023-03-14T07:55:17;96551.13;;;13.14;65.27
27144;BME280;14672;50.250;8.312;2023-03-14T07:57:43;96556.41;;;12.99;65.93
27144;BME280;14672;50.250;8.312;2023-03-14T08:00:10;96544.50;;;13.01;65.69
27144;BME280;14672;50.250;8.312;2023-03-14T08:02:36;96541.44;;;12.93;65.99
27144;BME280;14672;50.250;8.312;2023-03-14T08:05:03;96549.59;;;13.08;65.86
27144;BME280;14672;50.250;8.312;2023-03-14T08:07:29;96531.63;;;13.18;65.17
27144;BME280;14672;50.250;8.312;2023-03-14T08:09:55;96538.66;;;13.42;64.84
27144;BME280;14672;50.250;8.312;2023-03-14T08:12:20;96538.00;;;13.30;64.60
27144;BME280;14672;50.250;8.312;2023-03-14T08:14:46;96539.69;;;13.44;64.58
27144;BME280;14672;50.250;8.312;2023-03-14T08:17:12;96546.03;;;13.32;64.81
27144;BME280;14672;50.250;8.312;2023-03-14T08:19:38;96546.50;;;13.36;64.63
27144;BME280;14672;50.250;8.312;2023-03-14T08:22:04;96553.09;;;13.25;65.05
27144;BME280;14672;50.250;8.312;2023-03-14T08:24:30;96558.34;;;13.45;64.40
27144;BME280;14672;50.250;8.312;2023-03-14T08:26:56;96555.28;;;13.38;64.50
27144;BME280;14672;50.250;8.312;2023-03-14T08:29:22;96554.72;;;13.45;64.56
27144;BME280;14672;50.250;8.312;2023-03-14T08:31:48;96558.03;;;13.49;64.65
27144;BME280;14672;50.250;8.312;2023-03-14T08:34:15;96567.06;;;13.53;65.05
27144;BME280;14672;50.250;8.312;2023-03-14T08:36:41;96556.97;;;13.52;65.13
27144;BME280;14672;50.250;8.312;2023-03-14T08:39:07;96558.88;;;13.44;65.56
27144;BME280;14672;50.250;8.312;2023-03-14T08:41:34;96559.03;;;13.51;65.24
27144;BME280;14672;50.250;8.312;2023-03-14T08:44:10;96565.53;;;13.52;65.03
27144;BME280;14672;50.250;8.312;2023-03-14T08:46:39;96565.34;;;13.44;65.35
27144;BME280;14672;50.250;8.312;2023-03-14T08:49:05;96562.41;;;13.50;65.22
27144;BME280;14672;50.250;8.312;2023-03-14T08:51:31;96561.69;;;13.20;65.61
27144;BME280;14672;50.250;8.312;2023-03-14T08:53:56;96559.00;;;13.33;65.41
27144;BME280;14672;50.250;8.312;2023-03-14T08:56:22;96568.97;;;13.45;65.62
27144;BME280;14672;50.250;8.312;2023-03-14T08:58:48;96570.56;;;13.40;65.29
27144;BME280;14672;50.250;8.312;2023-03-14T09:01:14;96572.53;;;13.51;65.70
27144;BME280;14672;50.250;8.312;2023-03-14T09:03:39;96575.09;;;13.54;65.54
27144;BME280;14672;50.250;8.312;2023-03-14T09:06:09;96568.06;;;13.55;66.02
27144;BME280;14672;50.250;8.312;2023-03-14T09:08:36;96561.91;;;13.51;65.86
27144;BME280;14672;50.250;8.312;2023-03-14T09:11:02;96567.84;;;13.53;66.60
27144;BME280;14672;50.250;8.312;2023-03-14T09:13:28;96576.34;;;13.59;65.89
27144;BME280;14672;50.250;8.312;2023-03-14T09:15:55;96591.38;;;13.59;66.27
27144;BME280;14672;50.250;8.312;2023-03-14T09:18:22;96578.19;;;13.56;66.54
27144;BME280;14672;50.250;8.312;2023-03-14T09:20:49;96584.88;;;13.59;67.07
27144;BME280;14672;50.250;8.312;2023-03-14T09:23:15;96580.38;;;13.69;66.73
27144;BME280;14672;50.250;8.312;2023-03-14T09:25:41;96579.13;;;13.64;66.80
27144;BME280;14672;50.250;8.312;2023-03-14T09:28:07;96586.09;;;13.69;65.44
27144;BME280;14672;50.250;8.312;2023-03-14T09:30:33;96579.13;;;13.64;66.84
27144;BME280;14672;50.250;8.312;2023-03-14T09:32:59;96572.56;;;13.70;67.08
27144;BME280;14672;50.250;8.312;2023-03-14T09:35:25;96573.72;;;13.85;66.56
27144;BME280;14672;50.250;8.312;2023-03-14T09:37:51;96585.06;;;13.67;65.99
27144;BME280;14672;50.250;8.312;2023-03-14T09:40:19;96576.28;;;13.64;66.46
27144;BME280;14672;50.250;8.312;2023-03-14T09:42:49;96579.13;;;13.64;65.99
27144;BME280;14672;50.250;8.312;2023-03-14T09:47:55;96579.06;;;13.70;65.66
27144;BME280;14672;50.250;8.312;2023-03-14T09:50:24;96576.50;;;13.67;65.90
27144;BME280;14672;50.250;8.312;2023-03-14T09:52:58;96583.34;;;13.82;65.52
27144;BME280;14672;50.250;8.312;2023-03-14T09:55:25;96592.03;;;13.71;65.78
27144;BME280;14672;50.250;8.312;2023-03-14T09:57:58;96582.09;;;13.78;66.08
27144;BME280;14672;50.250;8.312;2023-03-14T10:00:30;96579.69;;;13.82;66.18
27144;BME280;14672;50.250;8.312;2023-03-14T10:05:41;96571.44;;;13.78;66.37
27144;BME280;14672;50.250;8.312;2023-03-14T10:08:11;96571.91;;;13.82;66.54
27144;BME280;14672;50.250;8.312;2023-03-14T10:10:37;96571.38;;;13.84;66.96
27144;BME280;14672;50.250;8.312;2023-03-14T10:13:19;96580.25;;;13.80;67.84
27144;BME280;14672;50.250;8.312;2023-03-14T10:16:07;96579.94;;;13.84;68.06
27144;BME280;14672;50.250;8.312;2023-03-14T10:18:34;96580.88;;;13.73;68.20
27144;BME280;14672;50.250;8.312;2023-03-14T10:21:35;96574.28;;;13.78;67.69
27144;BME280;14672;50.250;8.312;2023-03-14T10:26:57;96580.19;;;13.61;67.61
27144;BME280;14672;50.250;8.312;2023-03-14T10:29:23;96576.81;;;13.63;68.01
27144;BME280;14672;50.250;8.312;2023-03-14T10:34:32;96587.50;;;13.81;67.91
27144;BME280;14672;50.250;8.312;2023-03-14T10:37:24;96575.50;;;13.88;67.74
27144;BME280;14672;50.250;8.312;2023-03-14T10:39:59;96583.72;;;13.73;68.08
27144;BME280;14672;50.250;8.312;2023-03-14T10:42:39;96590.91;;;13.80;68.27
27144;BME280;14672;50.250;8.312;2023-03-14T10:53:20;96587.34;;;13.49;69.32
27144;BME280;14672;50.250;8.312;2023-03-14T10:55:46;96585.00;;;13.72;69.17
27144;BME280;14672;50.250;8.312;2023-03-14T10:58:29;96584.25;;;13.72;69.62
27144;BME280;14672;50.250;8.312;2023-03-14T11:01:48;96587.53;;;13.57;70.30
27144;BME280;14672;50.250;8.312;2023-03-14T11:29:41;96599.94;;;13.84;70.34
27144;BME280;14672;50.250;8.312;2023-03-14T11:32:39;96608.72;;;13.86;70.94
27144;BME280;14672;50.250;8.312;2023-03-14T11:35:28;96607.88;;;13.67;71.48
27144;BME280;14672;50.250;8.312;2023-03-14T11:38:42;96635.94;;;13.87;70.44
27144;BME280;14672;50.250;8.312;2023-03-14T11:41:40;96717.03;;;13.43;70.85
27144;BME280;14672;50.250;8.312;2023-03-14T11:44:34;96759.28;;;13.44;67.63
27144;BME280;14672;50.250;8.312;2023-03-14T11:50:04;96791.22;;;12.80;66.37
27144;BME280;14672;50.250;8.312;2023-03-14T11:52:39;96809.66;;;12.62;66.65
27144;BME280;14672;50.250;8.312;2023-03-14T11:55:35;96825.06;;;12.26;65.75
27144;BME280;14672;50.250;8.312;2023-03-14T11:58:23;96832.53;;;12.29;64.98
27144;BME280;14672;50.250;8.312;2023-03-14T12:00:51;96838.25;;;12.06;65.22
27144;BME280;14672;50.250;8.312;2023-03-14T12:03:52;96874.75;;;12.08;65.04
27144;BME280;14672;50.250;8.312;2023-03-14T12:06:40;96876.28;;;11.87;65.31
27144;BME280;14672;50.250;8.312;2023-03-14T12:09:12;96871.63;;;11.95;66.28
27144;BME280;14672;50.250;8.312;2023-03-14T12:11:54;96884.56;;;11.90;65.55
27144;BME280;14672;50.250;8.312;2023-03-14T12:14:37;96886.13;;;11.97;66.88
27144;BME280;14672;50.250;8.312;2023-03-14T12:19:40;96888.97;;;12.19;66.86
27144;BME280;14672;50.250;8.312;2023-03-14T12:22:28;96888.94;;;12.02;67.14
27144;BME280;14672;50.250;8.312;2023-03-14T12:30:41;96898.56;;;12.21;67.55
27144;BME280;14672;50.250;8.312;2023-03-14T12:33:19;96902.69;;;12.09;67.70
27144;BME280;14672;50.250;8.312;2023-03-14T12:35:52;96914.84;;;12.15;66.36
27144;BME280;14672;50.250;8.312;2023-03-14T12:38:29;96903.47;;;12.15;66.92
27144;BME280;14672;50.250;8.312;2023-03-14T12:41:20;96907.59;;;12.37;66.79
27144;BME280;14672;50.250;8.312;2023-03-14T12:43:48;96922.34;;;12.13;65.99
27144;BME280;14672;50.250;8.312;2023-03-14T12:51:37;96931.63;;;12.75;65.73
27144;BME280;14672;50.250;8.312;2023-03-14T12:54:45;96939.09;;;13.00;64.40
27144;BME280;14672;50.250;8.312;2023-03-14T12:57:54;96953.59;;;12.96;62.74
27144;BME280;14672;50.250;8.312;2023-03-14T13:00:43;96953.00;;;13.37;61.75
27144;BME280;14672;50.250;8.312;2023-03-14T13:08:45;96977.66;;;13.29;59.50
27144;BME280;14672;50.250;8.312;2023-03-14T13:11:19;96996.63;;;12.93;58.91
27144;BME280;14672;50.250;8.312;2023-03-14T13:13:49;96978.22;;;13.05;59.11
27144;BME280;14672;50.250;8.312;2023-03-14T13:16:20;97008.00;;;13.09;59.47
27144;BME280;14672;50.250;8.312;2023-03-14T13:18:49;97014.16;;;13.47;59.09
27144;BME280;14672;50.250;8.312;2023-03-14T13:21:22;97017.53;;;13.40;58.94
27144;BME280;14672;50.250;8.312;2023-03-14T13:24:00;97031.88;;;13.18;58.74
27144;BME280;14672;50.250;8.312;2023-03-14T13:26:37;97048.16;;;13.23;59.59
27144;BME280;14672;50.250;8.312;2023-03-14T13:29:27;97095.06;;;12.77;60.33
27144;BME280;14672;50.250;8.312;2023-03-14T13:31:56;97108.16;;;12.30;59.11
27144;BME280;14672;50.250;8.312;2023-03-14T13:34:34;97104.88;;;12.59;59.66
27144;BME280;14672;50.250;8.312;2023-03-14T13:37:00;97094.56;;;12.73;60.11
27144;BME280;14672;50.250;8.312;2023-03-14T13:39:28;97104.41;;;12.89;59.63
27144;BME280;14672;50.250;8.312;2023-03-14T13:42:01;97116.03;;;13.02;58.51
27144;BME280;14672;50.250;8.312;2023-03-14T13:44:38;97119.16;;;12.82;57.54
27144;BME280;14672;50.250;8.312;2023-03-14T13:47:13;97131.63;;;12.90;58.14
27144;BME280;14672;50.250;8.312;2023-03-14T13:49:40;97132.38;;;12.85;57.69
27144;BME280;14672;50.250;8.312;2023-03-14T13:52:35;97143.25;;;13.03;57.81
27144;BME280;14672;50.250;8.312;2023-03-14T13:55:03;97157.50;;;12.81;57.78
27144;BME280;14672;50.250;8.312;2023-03-14T13:57:53;97177.16;;;12.79;57.84
27144;BME280;14672;50.250;8.312;2023-03-14T14:00:25;97201.50;;;12.74;58.43
27144;BME280;14672;50.250;8.312;2023-03-14T14:02:58;97211.50;;;12.36;58.49
27144;BME280;14672;50.250;8.312;2023-03-14T14:05:29;97232.94;;;11.84;58.86
27144;BME280;14672;50.250;8.312;2023-03-14T14:07:57;97236.00;;;11.49;59.48
27144;BME280;14672;50.250;8.312;2023-03-14T14:10:23;97233.25;;;11.60;59.75
27144;BME280;14672;50.250;8.312;2023-03-14T14:12:57;97240.28;;;11.64;60.08
27144;BME280;14672;50.250;8.312;2023-03-14T14:15:31;97244.84;;;11.82;60.99
27144;BME280;14672;50.250;8.312;2023-03-14T14:18:10;97256.22;;;11.82;60.64
27144;BME280;14672;50.250;8.312;2023-03-14T14:20:41;97260.72;;;11.68;61.13
27144;BME280;14672;50.250;8.312;2023-03-14T14:23:21;97275.03;;;11.74;61.89
27144;BME280;14672;50.250;8.312;2023-03-14T14:25:52;97282.00;;;11.73;60.76
27144;BME280;14672;50.250;8.312;2023-03-14T14:28:33;97284.97;;;11.58;61.25
27144;BME280;14672;50.250;8.312;2023-03-14T14:36:40;97333.31;;;11.32;61.86